sensor_id;sensor_type;location;lat;lon;timestamp;pressure;altitude;pressure_sealevel;temperature;humidity
12969;BME280;6549;53.128;8.182;2023-04-10T00:01:37;102103.69;;;6.15;100.00
12969;BME280;6549;53.128;8.182;2023-04-10T00:04:38;102108.34;;;6.14;100.00
12969;BME280;6549;53.128;8.182;2023-04-10T00:07:38;102108.81;;;6.08;100.00
12969;BME280;6549;53.128;8.182;2023-04-10T00:10:38;102101.75;;;6.07;100.00
12969;BME280;6549;53.128;8.182;2023-04-10T00:13:39;102096.28;;;6.07;100.00
12969;BME280;6549;53.128;8.182;2023-04-10T00:16:39;102096.63;;;6.05;100.00
12969;BME280;6549;53.128;8.182;2023-04-10T00:19:40;102085.84;;;6.09;100.00
12969;BME280;6549;53.128;8.182;2023-04-10T00:22:40;102075.59;;;6.06;100.00
12969;BME280;6549;53.128;8.182;2023-04-10T00:25:41;102069.50;;;6.00;100.00
12969;BME280;6549;53.128;8.182;2023-04-10T00:28:42;102073.34;;;5.99;100.00
12969;BME280;6549;53.128;8.182;2023-04-10T00:31:42;102069.66;;;5.95;100.00
12969;BME280;6549;53.128;8.182;2023-04-10T00:34:43;102058.09;;;5.98;100.00
12969;BME280;6549;53.128;8.182;2023-04-10T00:37:43;102055.19;;;5.86;100.00
12969;BME280;6549;53.128;8.182;2023-04-10T00:40:43;102053.41;;;5.81;100.00
12969;BME280;6549;53.128;8.182;2023-04-10T00:43:44;102052.31;;;5.82;100.00
12969;BME280;6549;53.128;8.182;2023-04-10T00:46:44;102047.00;;;5.77;100.00
12969;BME280;6549;53.128;8.182;2023-04-10T00:49:45;102044.78;;;5.79;100.00
12969;BME280;6549;53.128;8.182;2023-04-10T00:52:45;102044.44;;;5.81;100.00
12969;BME280;6549;53.128;8.182;2023-04-10T00:55:47;102035.28;;;5.85;100.00
12969;BME280;6549;53.128;8.182;2023-04-10T00:58:48;102023.78;;;5.89;100.00
12969;BME280;6549;53.128;8.182;2023-04-10T01:01:48;102023.78;;;5.89;100.00
12969;BME280;6549;53.128;8.182;2023-04-10T01:04:49;102023.94;;;5.92;100.00
12969;BME280;6549;53.128;8.182;2023-04-10T01:08:01;102028.06;;;5.98;100.00
12969;BME280;6549;53.128;8.182;2023-04-10T01:14:55;102020.06;;;5.93;100.00
12969;BME280;6549;53.128;8.182;2023-04-10T01:18:07;102019.44;;;5.96;100.00
12969;BME280;6549;53.128;8.182;2023-04-10T01:21:13;102012.66;;;5.94;100.00
12969;BME280;6549;53.128;8.182;2023-04-10T01:27:59;102010.28;;;5.92;100.00
12969;BME280;6549;53.128;8.182;2023-04-10T01:31:07;102010.13;;;5.89;100.00
12969;BME280;6549;53.128;8.182;2023-04-10T01:34:46;102008.34;;;5.84;100.00
12969;BME280;6549;53.128;8.182;2023-04-10T01:37:41;102005.44;;;5.80;100.00
12969;BME280;6549;53.128;8.182;2023-04-10T01:40:43;102001.13;;;5.79;100.00
12969;BME280;6549;53.128;8.182;2023-04-10T01:43:50;101999.19;;;5.80;100.00
12969;BME280;6549;53.128;8.182;2023-04-10T01:46:52;102002.25;;;5.87;100.00
12969;BME280;6549;53.128;8.182;2023-04-10T01:49:53;102004.81;;;5.83;100.00
12969;BME280;6549;53.128;8.182;2023-04-10T01:52:55;101997.25;;;5.80;100.00
12969;BME280;6549;53.128;8.182;2023-04-10T01:55:56;101996.13;;;5.81;100.00
12969;BME280;6549;53.128;8.182;2023-04-10T01:58:58;101985.88;;;5.78;100.00
12969;BME280;6549;53.128;8.182;2023-04-10T02:01:59;101983.63;;;5.72;100.00
12969;BME280;6549;53.128;8.182;2023-04-10T02:04:59;101974.34;;;5.64;100.00
12969;BME280;6549;53.128;8.182;2023-04-10T02:08:17;101979.97;;;5.59;100.00
12969;BME280;6549;53.128;8.182;2023-04-10T02:14:31;101966.81;;;5.53;100.00
12969;BME280;6549;53.128;8.182;2023-04-10T02:17:32;101965.22;;;5.43;100.00
12969;BME280;6549;53.128;8.182;2023-04-10T02:20:33;101963.13;;;5.40;100.00
12969;BME280;6549;53.128;8.182;2023-04-10T02:23:35;101953.34;;;5.30;100.00
12969;BME280;6549;53.128;8.182;2023-04-10T02:26:49;101955.59;;;5.28;100.00
12969;BME280;6549;53.128;8.182;2023-04-10T02:29:50;101958.00;;;5.30;100.00
12969;BME280;6549;53.128;8.182;2023-04-10T02:32:50;101960.38;;;5.31;100.00
12969;BME280;6549;53.128;8.182;2023-04-10T02:35:51;101962.00;;;5.32;100.00
12969;BME280;6549;53.128;8.182;2023-04-10T02:38:51;101955.13;;;5.35;100.00
12969;BME280;6549;53.128;8.182;2023-04-10T02:41:51;101952.72;;;5.33;100.00
12969;BME280;6549;53.128;8.182;2023-04-10T02:44:52;101948.72;;;5.31;100.00
12969;BME280;6549;53.128;8.182;2023-04-10T02:47:52;101953.97;;;5.36;100.00
12969;BME280;6549;53.128;8.182;2023-04-10T02:50:58;101949.81;;;5.30;100.00
12969;BME280;6549;53.128;8.182;2023-04-10T02:53:59;101947.72;;;5.27;100.00
12969;BME280;6549;53.128;8.182;2023-04-10T02:56:59;101944.69;;;5.28;100.00
12969;BME280;6549;53.128;8.182;2023-04-10T03:00:00;101940.69;;;5.26;100.00
12969;BME280;6549;53.128;8.182;2023-04-10T03:03:01;101945.50;;;5.29;100.00
12969;BME280;6549;53.128;8.182;2023-04-10T03:06:02;101936.19;;;5.30;100.00
12969;BME280;6549;53.128;8.182;2023-04-10T03:09:02;101933.47;;;5.30;100.00
12969;BME280;6549;53.128;8.182;2023-04-10T03:12:03;101921.91;;;5.33;100.00
12969;BME280;6549;53.128;8.182;2023-04-10T03:15:03;101915.34;;;5.42;100.00
12969;BME280;6549;53.128;8.182;2023-04-10T03:18:04;101910.53;;;5.48;100.00
12969;BME280;6549;53.128;8.182;2023-04-10T03:21:05;101916.00;;;5.48;100.00
12969;BME280;6549;53.128;8.182;2023-04-10T03:24:05;101908.09;;;5.55;100.00
12969;BME280;6549;53.128;8.182;2023-04-10T03:27:06;101905.69;;;5.62;100.00
12969;BME280;6549;53.128;8.182;2023-04-10T03:30:06;101904.09;;;5.61;100.00
12969;BME280;6549;53.128;8.182;2023-04-10T03:33:07;101894.78;;;5.62;100.00
12969;BME280;6549;53.128;8.182;2023-04-10T03:36:07;101899.28;;;5.58;100.00
12969;BME280;6549;53.128;8.182;2023-04-10T03:39:08;101893.34;;;5.65;100.00
12969;BME280;6549;53.128;8.182;2023-04-10T03:42:08;101898.66;;;5.61;100.00
12969;BME280;6549;53.128;8.182;2023-04-10T03:45:09;101891.72;;;5.64;100.00
12969;BME280;6549;53.128;8.182;2023-04-10T03:48:09;101889.81;;;5.64;100.00
12969;BME280;6549;53.128;8.182;2023-04-10T03:51:10;101894.28;;;5.69;100.00
12969;BME280;6549;53.128;8.182;2023-04-10T03:54:10;101896.22;;;5.60;100.00
12969;BME280;6549;53.128;8.182;2023-04-10T03:57:10;101890.13;;;5.63;100.00
12969;BME280;6549;53.128;8.182;2023-04-10T04:00:12;101894.47;;;5.64;100.00
12969;BME280;6549;53.128;8.182;2023-04-10T04:03:12;101894.63;;;5.59;100.00
12969;BME280;6549;53.128;8.182;2023-04-10T04:06:13;101898.00;;;5.56;100.00
12969;BME280;6549;53.128;8.182;2023-04-10T04:09:13;101906.03;;;5.52;100.00
12969;BME280;6549;53.128;8.182;2023-04-10T04:12:13;101901.22;;;5.49;100.00
12969;BME280;6549;53.128;8.182;2023-04-10T04:15:14;101893.84;;;5.41;100.00
12969;BME280;6549;53.128;8.182;2023-04-10T04:18:14;101899.16;;;5.37;100.00
12969;BME280;6549;53.128;8.182;2023-04-10T04:21:14;101907.50;;;5.32;100.00
12969;BME280;6549;53.128;8.182;2023-04-10T04:24:15;101903.34;;;5.26;100.00
12969;BME280;6549;53.128;8.182;2023-04-10T04:27:15;101904.63;;;5.20;100.00
12969;BME280;6549;53.128;8.182;2023-04-10T04:30:15;101908.31;;;5.16;100.00
12969;BME280;6549;53.128;8.182;2023-04-10T04:33:16;101907.66;;;5.10;100.00
12969;BME280;6549;53.128;8.182;2023-04-10T04:36:16;101908.78;;;5.09;100.00
12969;BME280;6549;53.128;8.182;2023-04-10T04:39:17;101907.81;;;5.05;100.00
12969;BME280;6549;53.128;8.182;2023-04-10T04:42:17;101910.53;;;5.05;100.00
12969;BME280;6549;53.128;8.182;2023-04-10T04:45:17;101914.22;;;5.09;100.00
12969;BME280;6549;53.128;8.182;2023-04-10T04:48:18;101910.53;;;5.14;100.00
12969;BME280;6549;53.128;8.182;2023-04-10T04:51:18;101911.84;;;5.16;100.00
12969;BME280;6549;53.128;8.182;2023-04-10T04:54:19;101908.16;;;5.21;100.00
12969;BME280;6549;53.128;8.182;2023-04-10T04:57:19;101904.78;;;5.24;100.00
12969;BME280;6549;53.128;8.182;2023-04-10T05:00:19;101906.38;;;5.25;100.00
12969;BME280;6549;53.128;8.182;2023-04-10T05:03:20;101893.88;;;5.24;100.00
12969;BME280;6549;53.128;8.182;2023-04-10T05:06:20;101893.22;;;5.27;100.00
12969;BME280;6549;53.128;8.182;2023-04-10T05:09:21;101890.50;;;5.27;100.00
12969;BME280;6549;53.128;8.182;2023-04-10T05:12:21;101885.84;;;5.27;100.00
12969;BME280;6549;53.128;8.182;2023-04-10T05:15:22;101876.53;;;5.37;100.00
12969;BME280;6549;53.128;8.182;2023-04-10T05:18:23;101874.47;;;5.42;100.00
12969;BME280;6549;53.128;8.182;2023-04-10T05:21:23;101872.03;;;5.50;100.00
12969;BME280;6549;53.128;8.182;2023-04-10T05:24:23;101860.28;;;5.58;100.00
12969;BME280;6549;53.128;8.182;2023-04-10T05:27:24;101865.41;;;5.68;100.00
12969;BME280;6549;53.128;8.182;2023-04-10T05:30:24;101866.69;;;5.79;100.00
12969;BME280;6549;53.128;8.182;2023-04-10T05:33:24;101870.34;;;5.92;100.00
12969;BME280;6549;53.128;8.182;2023-04-10T05:36:25;101869.03;;;6.06;100.00
12969;BME280;6549;53.128;8.182;2023-04-10T05:39:25;101872.91;;;6.26;100.00
12969;BME280;6549;53.128;8.182;2023-04-10T05:42:26;101874.31;;;6.61;100.00
12969;BME280;6549;53.128;8.182;2023-04-10T05:45:26;101870.41;;;6.92;100.00
12969;BME280;6549;53.128;8.182;2023-04-10T05:48:27;101873.06;;;7.21;100.00
12969;BME280;6549;53.128;8.182;2023-04-10T05:51:28;101875.88;;;7.45;100.00
12969;BME280;6549;53.128;8.182;2023-04-10T05:54:28;101868.00;;;7.77;100.00
12969;BME280;6549;53.128;8.182;2023-04-10T05:57:28;101866.75;;;8.10;100.00
12969;BME280;6549;53.128;8.182;2023-04-10T06:00:29;101869.66;;;8.38;100.00
12969;BME280;6549;53.128;8.182;2023-04-10T06:03:29;101871.59;;;8.38;100.00
12969;BME280;6549;53.128;8.182;2023-04-10T06:06:31;101865.09;;;8.30;100.00
12969;BME280;6549;53.128;8.182;2023-04-10T06:09:31;101863.75;;;8.36;100.00
12969;BME280;6549;53.128;8.182;2023-04-10T06:12:32;101863.03;;;8.39;100.00
12969;BME280;6549;53.128;8.182;2023-04-10T06:15:32;101859.38;;;8.47;100.00
12969;BME280;6549;53.128;8.182;2023-04-10T06:18:33;101869.44;;;8.43;100.00
12969;BME280;6549;53.128;8.182;2023-04-10T06:21:33;101859.94;;;8.41;100.00
12969;BME280;6549;53.128;8.182;2023-04-10T06:24:33;101858.38;;;8.40;100.00
12969;BME280;6549;53.128;8.182;2023-04-10T06:27:34;101854.56;;;8.56;100.00
12969;BME280;6549;53.128;8.182;2023-04-10T06:30:36;101853.50;;;8.73;100.00
12969;BME280;6549;53.128;8.182;2023-04-10T06:33:37;101844.00;;;8.83;100.00
12969;BME280;6549;53.128;8.182;2023-04-10T06:36:37;101844.22;;;8.90;100.00
12969;BME280;6549;53.128;8.182;2023-04-10T06:39:38;101848.50;;;9.03;100.00
12969;BME280;6549;53.128;8.182;2023-04-10T06:42:38;101847.97;;;9.25;100.00
12969;BME280;6549;53.128;8.182;2023-04-10T06:45:40;101849.00;;;9.48;100.00
12969;BME280;6549;53.128;8.182;2023-04-10T06:48:40;101845.66;;;9.71;100.00
12969;BME280;6549;53.128;8.182;2023-04-10T06:51:40;101841.75;;;9.87;100.00
12969;BME280;6549;53.128;8.182;2023-04-10T06:54:41;101849.03;;;10.11;100.00
12969;BME280;6549;53.128;8.182;2023-04-10T06:57:41;101847.34;;;10.38;100.00
12969;BME280;6549;53.128;8.182;2023-04-10T07:00:42;101844.00;;;10.64;100.00
12969;BME280;6549;53.128;8.182;2023-04-10T07:03:42;101842.56;;;10.89;100.00
12969;BME280;6549;53.128;8.182;2023-04-10T07:06:43;101834.91;;;11.17;100.00
12969;BME280;6549;53.128;8.182;2023-04-10T07:09:43;101842.25;;;11.10;100.00
12969;BME280;6549;53.128;8.182;2023-04-10T07:12:44;101841.34;;;11.25;100.00
12969;BME280;6549;53.128;8.182;2023-04-10T07:15:44;101834.44;;;11.54;100.00
12969;BME280;6549;53.128;8.182;2023-04-10T07:18:45;101827.91;;;11.85;100.00
12969;BME280;6549;53.128;8.182;2023-04-10T07:21:45;101825.34;;;12.22;100.00
12969;BME280;6549;53.128;8.182;2023-04-10T07:24:49;101817.75;;;12.38;100.00
12969;BME280;6549;53.128;8.182;2023-04-10T07:27:49;101816.66;;;12.76;100.00
12969;BME280;6549;53.128;8.182;2023-04-10T07:30:50;101816.47;;;12.61;100.00
12969;BME280;6549;53.128;8.182;2023-04-10T07:33:50;101805.16;;;13.00;100.00
12969;BME280;6549;53.128;8.182;2023-04-10T07:36:51;101802.81;;;13.35;100.00
12969;BME280;6549;53.128;8.182;2023-04-10T07:39:51;101798.63;;;13.48;100.00
12969;BME280;6549;53.128;8.182;2023-04-10T07:42:51;101789.31;;;13.27;100.00
12969;BME280;6549;53.128;8.182;2023-04-10T07:45:52;101784.03;;;13.52;100.00
12969;BME280;6549;53.128;8.182;2023-04-10T07:48:52;101775.56;;;13.74;100.00
12969;BME280;6549;53.128;8.182;2023-04-10T07:51:54;101780.59;;;14.16;97.04
12969;BME280;6549;53.128;8.182;2023-04-10T07:54:54;101771.25;;;14.35;90.87
12969;BME280;6549;53.128;8.182;2023-04-10T07:57:54;101772.13;;;14.46;87.50
12969;BME280;6549;53.128;8.182;2023-04-10T08:00:55;101766.63;;;14.57;85.74
12969;BME280;6549;53.128;8.182;2023-04-10T08:03:55;101761.28;;;14.99;82.71
12969;BME280;6549;53.128;8.182;2023-04-10T08:06:56;101770.84;;;15.34;83.91
12969;BME280;6549;53.128;8.182;2023-04-10T08:09:56;101765.38;;;15.62;80.15
12969;BME280;6549;53.128;8.182;2023-04-10T08:12:56;101756.66;;;15.74;76.62
12969;BME280;6549;53.128;8.182;2023-04-10T08:15:57;101756.66;;;15.63;73.51
12969;BME280;6549;53.128;8.182;2023-04-10T08:18:58;101746.31;;;15.25;73.84
12969;BME280;6549;53.128;8.182;2023-04-10T08:21:58;101740.00;;;15.85;77.14
12969;BME280;6549;53.128;8.182;2023-04-10T08:24:59;101730.53;;;15.71;72.77
12969;BME280;6549;53.128;8.182;2023-04-10T08:27:59;101732.44;;;16.17;70.57
12969;BME280;6549;53.128;8.182;2023-04-10T08:30:59;101727.72;;;16.03;69.61
12969;BME280;6549;53.128;8.182;2023-04-10T08:34:00;101724.94;;;16.07;67.77
12969;BME280;6549;53.128;8.182;2023-04-10T08:37:04;101713.06;;;16.10;66.90
12969;BME280;6549;53.128;8.182;2023-04-10T08:40:05;101711.47;;;15.98;67.68
12969;BME280;6549;53.128;8.182;2023-04-10T08:43:05;101702.03;;;15.78;68.19
12969;BME280;6549;53.128;8.182;2023-04-10T08:46:06;101694.06;;;15.98;67.04
12969;BME280;6549;53.128;8.182;2023-04-10T08:49:09;101683.75;;;16.09;65.11
12969;BME280;6549;53.128;8.182;2023-04-10T08:52:14;101675.84;;;15.93;63.63
12969;BME280;6549;53.128;8.182;2023-04-10T08:55:18;101670.13;;;16.46;64.83
12969;BME280;6549;53.128;8.182;2023-04-10T08:58:19;101670.38;;;16.80;61.17
12969;BME280;6549;53.128;8.182;2023-04-10T09:01:20;101662.91;;;16.67;59.71
12969;BME280;6549;53.128;8.182;2023-04-10T09:04:20;101649.94;;;17.12;60.19
12969;BME280;6549;53.128;8.182;2023-04-10T09:07:21;101650.03;;;17.45;57.61
12969;BME280;6549;53.128;8.182;2023-04-10T09:10:22;101644.13;;;17.43;54.61
12969;BME280;6549;53.128;8.182;2023-04-10T09:13:38;101630.50;;;17.52;53.95
12969;BME280;6549;53.128;8.182;2023-04-10T09:16:39;101626.34;;;16.86;53.39
12969;BME280;6549;53.128;8.182;2023-04-10T09:19:39;101620.72;;;16.93;53.57
12969;BME280;6549;53.128;8.182;2023-04-10T09:22:40;101623.56;;;17.34;52.50
12969;BME280;6549;53.128;8.182;2023-04-10T09:25:40;101612.97;;;17.63;50.89
12969;BME280;6549;53.128;8.182;2023-04-10T09:29:23;101607.47;;;17.56;49.68
12969;BME280;6549;53.128;8.182;2023-04-10T09:32:04;101599.88;;;17.63;51.67
12969;BME280;6549;53.128;8.182;2023-04-10T09:35:04;101596.50;;;17.82;49.10
12969;BME280;6549;53.128;8.182;2023-04-10T09:38:15;101595.31;;;17.83;48.30
12969;BME280;6549;53.128;8.182;2023-04-10T09:41:16;101581.25;;;18.24;48.66
12969;BME280;6549;53.128;8.182;2023-04-10T09:44:17;101579.88;;;18.09;47.36
12969;BME280;6549;53.128;8.182;2023-04-10T09:47:19;101577.72;;;17.90;46.00
12969;BME280;6549;53.128;8.182;2023-04-10T09:50:20;101570.75;;;18.09;46.77
12969;BME280;6549;53.128;8.182;2023-04-10T09:53:32;101578.47;;;18.24;45.94
12969;BME280;6549;53.128;8.182;2023-04-10T09:56:46;101568.28;;;18.71;46.63
12969;BME280;6549;53.128;8.182;2023-04-10T09:59:50;101591.50;;;18.61;44.89
12969;BME280;6549;53.128;8.182;2023-04-10T10:02:51;101568.56;;;18.80;44.82
12969;BME280;6549;53.128;8.182;2023-04-10T10:05:53;101579.91;;;18.66;44.87
12969;BME280;6549;53.128;8.182;2023-04-10T10:08:53;101572.13;;;18.54;43.69
12969;BME280;6549;53.128;8.182;2023-04-10T10:11:53;101564.09;;;18.29;44.03
12969;BME280;6549;53.128;8.182;2023-04-10T10:15:02;101559.94;;;18.41;44.51
12969;BME280;6549;53.128;8.182;2023-04-10T10:18:20;101553.97;;;18.42;44.03
12969;BME280;6549;53.128;8.182;2023-04-10T10:21:21;101537.59;;;18.21;44.07
12969;BME280;6549;53.128;8.182;2023-04-10T10:24:22;101533.75;;;18.38;45.33
12969;BME280;6549;53.128;8.182;2023-04-10T10:27:25;101536.59;;;18.35;44.70
12969;BME280;6549;53.128;8.182;2023-04-10T10:30:25;101521.69;;;18.22;44.63
12969;BME280;6549;53.128;8.182;2023-04-10T10:33:25;101514.91;;;17.96;45.14
12969;BME280;6549;53.128;8.182;2023-04-10T10:36:26;101511.13;;;17.79;45.37
12969;BME280;6549;53.128;8.182;2023-04-10T10:42:41;101503.22;;;18.35;45.24
12969;BME280;6549;53.128;8.182;2023-04-10T10:48:57;101488.88;;;18.10;44.45
12969;BME280;6549;53.128;8.182;2023-04-10T10:51:57;101481.47;;;18.26;44.06
12969;BME280;6549;53.128;8.182;2023-04-10T10:54:58;101482.63;;;18.29;42.95
12969;BME280;6549;53.128;8.182;2023-04-10T10:57:58;101461.53;;;18.05;43.70
12969;BME280;6549;53.128;8.182;2023-04-10T11:01:03;101469.56;;;17.99;43.92
12969;BME280;6549;53.128;8.182;2023-04-10T11:07:23;101465.78;;;17.86;44.26
12969;BME280;6549;53.128;8.182;2023-04-10T11:16:59;101432.53;;;17.79;45.33
12969;BME280;6549;53.128;8.182;2023-04-10T11:19:59;101416.66;;;17.76;44.07
12969;BME280;6549;53.128;8.182;2023-04-10T11:23:06;101414.09;;;17.88;45.07
12969;BME280;6549;53.128;8.182;2023-04-10T11:26:09;101409.28;;;17.66;44.70
12969;BME280;6549;53.128;8.182;2023-04-10T11:32:19;101394.25;;;18.13;44.05
12969;BME280;6549;53.128;8.182;2023-04-10T11:35:19;101392.16;;;18.44;44.64
12969;BME280;6549;53.128;8.182;2023-04-10T11:38:20;101379.13;;;18.37;42.68
12969;BME280;6549;53.128;8.182;2023-04-10T11:41:20;101382.94;;;18.47;42.65
12969;BME280;6549;53.128;8.182;2023-04-10T11:47:24;101376.38;;;18.61;42.28
12969;BME280;6549;53.128;8.182;2023-04-10T11:50:27;101365.25;;;18.61;42.12
12969;BME280;6549;53.128;8.182;2023-04-10T11:53:28;101355.84;;;18.94;41.64
12969;BME280;6549;53.128;8.182;2023-04-10T11:56:29;101348.00;;;19.09;41.25
12969;BME280;6549;53.128;8.182;2023-04-10T11:59:29;101346.66;;;19.53;41.99
12969;BME280;6549;53.128;8.182;2023-04-10T12:02:30;101342.84;;;19.47;41.98
12969;BME280;6549;53.128;8.182;2023-04-10T12:05:43;101346.69;;;19.33;40.52
12969;BME280;6549;53.128;8.182;2023-04-10T12:08:44;101348.34;;;19.11;40.16
12969;BME280;6549;53.128;8.182;2023-04-10T12:11:54;101320.75;;;19.16;40.65
12969;BME280;6549;53.128;8.182;2023-04-10T12:14:55;101309.34;;;19.11;41.20
12969;BME280;6549;53.128;8.182;2023-04-10T12:17:55;101305.41;;;19.28;41.46
12969;BME280;6549;53.128;8.182;2023-04-10T12:20:56;101311.31;;;19.30;40.82
12969;BME280;6549;53.128;8.182;2023-04-10T12:23:57;101296.91;;;19.15;40.83
12969;BME280;6549;53.128;8.182;2023-04-10T12:26:58;101293.06;;;19.09;39.58
12969;BME280;6549;53.128;8.182;2023-04-10T12:29:58;101282.59;;;18.97;39.73
12969;BME280;6549;53.128;8.182;2023-04-10T12:32:58;101272.06;;;19.05;40.06
12969;BME280;6549;53.128;8.182;2023-04-10T12:36:02;101275.22;;;19.07;40.27
12969;BME280;6549;53.128;8.182;2023-04-10T12:39:03;101273.75;;;18.63;39.58
12969;BME280;6549;53.128;8.182;2023-04-10T12:45:10;101261.66;;;18.50;40.27
12969;BME280;6549;53.128;8.182;2023-04-10T12:48:12;101258.47;;;18.71;40.17
12969;BME280;6549;53.128;8.182;2023-04-10T12:54:40;101251.03;;;18.45;40.23
12969;BME280;6549;53.128;8.182;2023-04-10T12:57:41;101248.41;;;18.57;40.42
12969;BME280;6549;53.128;8.182;2023-04-10T13:00:41;101242.41;;;18.78;39.70
12969;BME280;6549;53.128;8.182;2023-04-10T13:03:43;101223.44;;;19.09;39.79
12969;BME280;6549;53.128;8.182;2023-04-10T13:06:45;101210.84;;;19.37;39.97
12969;BME280;6549;53.128;8.182;2023-04-10T13:09:46;101201.56;;;19.60;40.22
12969;BME280;6549;53.128;8.182;2023-04-10T13:12:46;101200.38;;;19.41;39.27
12969;BME280;6549;53.128;8.182;2023-04-10T13:15:46;101196.19;;;18.81;39.24
12969;BME280;6549;53.128;8.182;2023-04-10T13:18:46;101197.34;;;18.83;39.81
12969;BME280;6549;53.128;8.182;2023-04-10T13:21:47;101179.25;;;18.75;39.55
12969;BME280;6549;53.128;8.182;2023-04-10T13:24:47;101165.84;;;18.31;40.44
12969;BME280;6549;53.128;8.182;2023-04-10T13:27:47;101161.63;;;18.23;40.79
12969;BME280;6549;53.128;8.182;2023-04-10T13:30:47;101150.97;;;18.37;40.51
12969;BME280;6549;53.128;8.182;2023-04-10T13:33:47;101146.50;;;18.24;41.20
12969;BME280;6549;53.128;8.182;2023-04-10T13:36:48;101151.47;;;18.32;41.19
12969;BME280;6549;53.128;8.182;2023-04-10T13:39:49;101140.63;;;18.38;41.58
12969;BME280;6549;53.128;8.182;2023-04-10T13:42:49;101135.31;;;18.27;40.86
12969;BME280;6549;53.128;8.182;2023-04-10T13:45:49;101132.44;;;18.31;41.22
12969;BME280;6549;53.128;8.182;2023-04-10T13:48:49;101124.88;;;18.31;41.96
12969;BME280;6549;53.128;8.182;2023-04-10T13:51:50;101117.34;;;18.68;41.95
12969;BME280;6549;53.128;8.182;2023-04-10T13:54:50;101116.19;;;18.85;41.17
12969;BME280;6549;53.128;8.182;2023-04-10T13:57:50;101102.91;;;18.57;40.19
12969;BME280;6549;53.128;8.182;2023-04-10T14:00:50;101084.41;;;18.66;40.30
12969;BME280;6549;53.128;8.182;2023-04-10T14:03:51;101082.66;;;18.72;39.69
12969;BME280;6549;53.128;8.182;2023-04-10T14:06:51;101079.75;;;18.60;40.82
12969;BME280;6549;53.128;8.182;2023-04-10T14:09:56;101069.69;;;18.46;40.02
12969;BME280;6549;53.128;8.182;2023-04-10T14:12:56;101054.97;;;18.29;40.07
12969;BME280;6549;53.128;8.182;2023-04-10T14:15:57;101053.91;;;18.23;39.99
12969;BME280;6549;53.128;8.182;2023-04-10T14:18:57;101064.81;;;18.34;40.15
12969;BME280;6549;53.128;8.182;2023-04-10T14:21:57;101047.78;;;18.32;39.87
12969;BME280;6549;53.128;8.182;2023-04-10T14:24:57;101050.59;;;18.48;40.62
12969;BME280;6549;53.128;8.182;2023-04-10T14:27:57;101041.88;;;18.46;39.82
12969;BME280;6549;53.128;8.182;2023-04-10T14:30:58;101041.25;;;18.58;40.86
12969;BME280;6549;53.128;8.182;2023-04-10T14:33:59;101031.09;;;18.48;39.30
12969;BME280;6549;53.128;8.182;2023-04-10T14:36:59;101027.84;;;18.33;39.27
12969;BME280;6549;53.128;8.182;2023-04-10T14:39:59;101029.66;;;18.24;39.22
12969;BME280;6549;53.128;8.182;2023-04-10T14:43:00;101020.50;;;18.07;39.39
12969;BME280;6549;53.128;8.182;2023-04-10T14:46:00;101028.63;;;17.98;39.82
12969;BME280;6549;53.128;8.182;2023-04-10T14:49:00;101006.97;;;17.89;39.55
12969;BME280;6549;53.128;8.182;2023-04-10T14:52:00;101000.06;;;17.78;39.72
12969;BME280;6549;53.128;8.182;2023-04-10T14:55:01;100981.97;;;17.70;40.16
12969;BME280;6549;53.128;8.182;2023-04-10T14:58:01;100976.75;;;17.72;40.27
12969;BME280;6549;53.128;8.182;2023-04-10T15:01:02;100984.22;;;17.75;41.16
12969;BME280;6549;53.128;8.182;2023-04-10T15:04:03;100970.16;;;17.66;40.60
12969;BME280;6549;53.128;8.182;2023-04-10T15:07:03;100966.34;;;17.76;39.82
12969;BME280;6549;53.128;8.182;2023-04-10T15:10:03;100954.19;;;17.70;40.42
12969;BME280;6549;53.128;8.182;2023-04-10T15:13:03;100952.50;;;17.52;40.16
12969;BME280;6549;53.128;8.182;2023-04-10T15:16:05;100943.91;;;17.67;40.37
12969;BME280;6549;53.128;8.182;2023-04-10T15:19:06;100947.75;;;17.53;40.83
12969;BME280;6549;53.128;8.182;2023-04-10T15:22:07;100931.22;;;17.46;41.27
12969;BME280;6549;53.128;8.182;2023-04-10T15:25:08;100928.44;;;17.46;40.86
12969;BME280;6549;53.128;8.182;2023-04-10T15:28:10;100927.38;;;17.40;41.25
12969;BME280;6549;53.128;8.182;2023-04-10T15:31:11;100911.84;;;17.42;41.09
12969;BME280;6549;53.128;8.182;2023-04-10T15:34:11;100900.88;;;17.35;41.76
12969;BME280;6549;53.128;8.182;2023-04-10T15:37:12;100895.84;;;17.30;41.19
12969;BME280;6549;53.128;8.182;2023-04-10T15:40:12;100880.00;;;17.27;42.17
12969;BME280;6549;53.128;8.182;2023-04-10T15:43:12;100884.00;;;17.26;42.74
12969;BME280;6549;53.128;8.182;2023-04-10T15:46:12;100859.16;;;17.19;42.34
12969;BME280;6549;53.128;8.182;2023-04-10T15:49:14;100862.72;;;17.20;42.20
12969;BME280;6549;53.128;8.182;2023-04-10T15:52:15;100858.38;;;17.19;42.31
12969;BME280;6549;53.128;8.182;2023-04-10T15:55:15;100867.66;;;17.12;41.65
12969;BME280;6549;53.128;8.182;2023-04-10T15:58:16;100864.00;;;17.15;42.29
12969;BME280;6549;53.128;8.182;2023-04-10T16:01:16;100866.41;;;17.13;42.21
12969;BME280;6549;53.128;8.182;2023-04-10T16:04:16;100858.53;;;17.12;42.41
12969;BME280;6549;53.128;8.182;2023-04-10T16:07:16;100854.38;;;17.00;42.66
12969;BME280;6549;53.128;8.182;2023-04-10T16:10:16;100851.34;;;16.94;42.51
12969;BME280;6549;53.128;8.182;2023-04-10T16:13:17;100848.97;;;16.93;43.25
12969;BME280;6549;53.128;8.182;2023-04-10T16:16:17;100838.38;;;16.88;42.97
12969;BME280;6549;53.128;8.182;2023-04-10T16:19:17;100833.81;;;16.78;43.46
12969;BME280;6549;53.128;8.182;2023-04-10T16:22:17;100827.19;;;16.72;43.49
12969;BME280;6549;53.128;8.182;2023-04-10T16:25:18;100828.97;;;16.62;43.77
12969;BME280;6549;53.128;8.182;2023-04-10T16:28:18;100821.06;;;16.60;43.80
12969;BME280;6549;53.128;8.182;2023-04-10T16:31:18;100832.38;;;16.46;43.80
12969;BME280;6549;53.128;8.182;2023-04-10T16:34:18;100814.03;;;16.52;43.64
12969;BME280;6549;53.128;8.182;2023-04-10T16:37:18;100815.78;;;16.43;43.71
12969;BME280;6549;53.128;8.182;2023-04-10T16:40:20;100811.91;;;16.40;44.33